Time;durP1;ratioP1;P1;durP2;ratioP2;P2;SDS_P1;SDS_P2;PMS_P1;PMS_P2;Temp;Humidity;BMP_temperature;BMP_pressure;BME280_temperature;BME280_humidity;BME280_pressure;Samples;Min_cycle;Max_cycle;Signal;HPM_P1;HPM_P2
2022/03/03 00:00:08;;;;;;;59.72;31.48;;;2.60;99.90;;;;;;5114998;28;20071;-60
2022/03/03 00:02:34;;;;;;;62.83;32.63;;;;;;;;;;5116138;28;20435;-60
2022/03/03 00:05:01;;;;;;;66.22;33.80;;;2.60;99.90;;;;;;5115167;28;20040;-59
2022/03/03 00:07:26;;;;;;;59.17;31.10;;;2.50;99.90;;;;;;5116464;28;20032;-60
2022/03/03 00:09:52;;;;;;;59.00;31.40;;;2.50;99.90;;;;;;5115334;28;20038;-60
2022/03/03 00:12:17;;;;;;;58.78;31.15;;;2.50;99.90;;;;;;5116434;28;20075;-59
2022/03/03 00:14:43;;;;;;;62.05;32.00;;;2.40;99.90;;;;;;5116293;28;20088;-61
2022/03/03 00:17:09;;;;;;;62.65;31.90;;;2.50;99.90;;;;;;5115207;28;20031;-62
2022/03/03 00:19:34;;;;;;;63.35;32.88;;;2.30;99.90;;;;;;5114410;28;20091;-62
2022/03/03 00:22:00;;;;;;;64.15;33.50;;;2.30;99.90;;;;;;5114644;28;20134;-61
2022/03/03 00:24:25;;;;;;;61.17;30.33;;;2.30;99.90;;;;;;5115954;28;20031;-61
2022/03/03 00:26:51;;;;;;;65.22;31.92;;;2.20;99.90;;;;;;5114456;28;20169;-61
2022/03/03 00:29:17;;;;;;;60.15;32.15;;;;;;;;;;5114327;28;20035;-62
2022/03/03 00:31:43;;;;;;;59.85;31.13;;;2.10;99.90;;;;;;5097484;28;20032;-61
2022/03/03 00:34:08;;;;;;;62.13;32.22;;;2.30;99.90;;;;;;5097476;28;20032;-61
2022/03/03 00:36:34;;;;;;;66.95;30.77;;;2.30;99.90;;;;;;5114391;28;20082;-61
2022/03/03 00:39:00;;;;;;;61.50;32.55;;;;;;;;;;5114354;28;20047;-62
2022/03/03 00:41:26;;;;;;;58.92;31.33;;;;;;;;;;5097530;28;20043;-61
2022/03/03 00:43:52;;;;;;;62.33;30.20;;;;;;;;;;5115455;28;20489;-62
2022/03/03 00:46:19;;;;;;;60.05;32.15;;;2.30;99.90;;;;;;5115115;28;20043;-62
2022/03/03 00:48:44;;;;;;;58.33;30.27;;;2.50;99.90;;;;;;5115197;28;20035;-62
2022/03/03 00:51:10;;;;;;;61.03;30.13;;;2.30;99.90;;;;;;5116025;28;20103;-63
2022/03/03 00:53:37;;;;;;;63.67;32.20;;;2.10;99.90;;;;;;5114335;28;20051;-62
2022/03/03 00:56:03;;;;;;;52.83;29.05;;;;;;;;;;5097843;28;20511;-62
2022/03/03 00:58:29;;;;;;;58.33;29.30;;;;;;;;;;5115172;28;20085;-61
2022/03/03 01:00:55;;;;;;;53.70;29.40;;;;;;;;;;5115613;28;20160;-61
2022/03/03 01:03:20;;;;;;;65.43;32.45;;;2.00;99.90;;;;;;5116124;28;20458;-62
2022/03/03 01:05:46;;;;;;;53.30;30.40;;;2.00;99.90;;;;;;5115901;28;20036;-62
2022/03/03 01:08:12;;;;;;;56.17;31.17;;;1.80;99.90;;;;;;5114309;28;20492;-62
2022/03/03 01:10:39;;;;;;;57.38;31.15;;;2.00;99.90;;;;;;5114276;28;20036;-62
2022/03/03 01:13:06;;;;;;;62.72;32.17;;;1.90;99.90;;;;;;5115225;28;20370;-62
2022/03/03 01:15:32;;;;;;;61.85;32.03;;;1.90;99.90;;;;;;5114951;28;20054;-62
2022/03/03 01:17:58;;;;;;;60.85;30.65;;;1.90;99.90;;;;;;5115159;28;20401;-63
2022/03/03 01:20:23;;;;;;;67.40;32.42;;;1.90;99.90;;;;;;5115624;28;20496;-62
2022/03/03 01:22:49;;;;;;;56.85;30.88;;;1.80;99.90;;;;;;5115136;28;20046;-62
2022/03/03 01:25:15;;;;;;;58.08;31.48;;;1.70;99.90;;;;;;5113781;28;20066;-63
2022/03/03 01:27:41;;;;;;;61.30;31.23;;;;;;;;;;5115204;28;20036;-61
2022/03/03 01:30:07;;;;;;;61.90;30.85;;;1.80;99.90;;;;;;5115510;28;20394;-63
2022/03/03 01:32:34;;;;;;;58.58;30.98;;;;;;;;;;5114532;28;20118;-62
2022/03/03 01:34:59;;;;;;;61.78;31.40;;;1.60;99.90;;;;;;5113609;28;20052;-63
2022/03/03 01:37:25;;;;;;;68.40;32.53;;;1.60;99.90;;;;;;5113660;28;20127;-63
2022/03/03 01:39:51;;;;;;;57.88;31.13;;;1.60;99.90;;;;;;5097047;28;20488;-62
2022/03/03 01:42:17;;;;;;;59.53;29.02;;;1.50;99.90;;;;;;5115317;28;20086;-63
2022/03/03 01:44:45;;;;;;;63.25;31.15;;;1.60;99.90;;;;;;5113131;28;20035;-61
2022/03/03 01:47:24;;;;;;;57.08;29.00;;;;;;;;;;5114941;28;20501;-62
2022/03/03 01:49:52;;;;;;;58.30;31.20;;;1.20;99.90;;;;;;5114632;28;20032;-62
2022/03/03 01:52:19;;;;;;;56.88;30.27;;;1.10;99.90;;;;;;5113002;28;20051;-62
2022/03/03 01:54:44;;;;;;;61.03;31.27;;;1.10;99.90;;;;;;5113486;28;20100;-62
2022/03/03 01:57:11;;;;;;;60.40;31.75;;;1.00;99.90;;;;;;5114405;28;20040;-63
2022/03/03 01:59:38;;;;;;;55.17;30.40;;;1.20;99.90;;;;;;5095794;28;20095;-62
2022/03/03 02:02:06;;;;;;;65.72;31.73;;;1.20;99.90;;;;;;5113776;28;20031;-62
2022/03/03 02:04:32;;;;;;;68.63;32.30;;;1.00;99.90;;;;;;5096361;28;20046;-62
2022/03/03 02:06:58;;;;;;;54.42;32.00;;;1.00;99.90;;;;;;5114316;28;20382;-62
2022/03/03 02:09:24;;;;;;;62.55;31.63;;;;;;;;;;5113641;28;20040;-62
2022/03/03 02:11:50;;;;;;;58.75;30.25;;;1.00;99.90;;;;;;5114427;28;20035;-63
2022/03/03 02:14:16;;;;;;;62.83;31.02;;;0.90;99.90;;;;;;5113320;28;20043;-62
2022/03/03 02:16:41;;;;;;;63.70;30.58;;;1.00;99.90;;;;;;5113938;28;20504;-62
2022/03/03 02:19:07;;;;;;;66.22;32.13;;;1.00;99.90;;;;;;5114782;28;20038;-62
2022/03/03 02:21:33;;;;;;;61.75;32.05;;;1.00;99.90;;;;;;5113159;28;20082;-62
2022/03/03 02:23:59;;;;;;;65.25;31.70;;;1.10;99.90;;;;;;5113181;28;20050;-62
2022/03/03 02:26:26;;;;;;;65.45;32.85;;;;;;;;;;5095933;28;20127;-62
2022/03/03 02:28:53;;;;;;;64.45;32.30;;;1.00;99.90;;;;;;5114244;28;20063;-62
2022/03/03 02:31:19;;;;;;;65.88;30.88;;;1.10;99.90;;;;;;5113754;28;20039;-61
2022/03/03 02:33:46;;;;;;;57.30;30.70;;;;;;;;;;5113331;28;20044;-62
2022/03/03 02:36:29;;;;;;;60.97;31.08;;;1.00;99.90;;;;;;5113255;28;20565;-62
2022/03/03 02:38:57;;;;;;;62.45;31.30;;;1.00;99.90;;;;;;5112753;28;20035;-60
2022/03/03 02:41:24;;;;;;;60.33;31.73;;;1.00;99.90;;;;;;5114213;28;20050;-59
2022/03/03 02:43:50;;;;;;;62.60;32.38;;;1.00;99.90;;;;;;5113358;28;20047;-60
2022/03/03 02:46:16;;;;;;;59.10;30.95;;;;;;;;;;5112312;28;20458;-59
2022/03/03 02:48:42;;;;;;;61.35;30.42;;;;;;;;;;5112243;28;20047;-59
2022/03/03 02:51:08;;;;;;;61.35;31.42;;;;;;;;;;5112579;28;20031;-59
2022/03/03 02:53:35;;;;;;;59.33;29.90;;;;;;;;;;5112013;28;20040;-59
2022/03/03 02:56:01;;;;;;;66.38;33.20;;;0.80;99.90;;;;;;5113523;28;20066;-59
2022/03/03 02:58:27;;;;;;;64.45;32.72;;;0.70;99.90;;;;;;5112265;28;20043;-58
2022/03/03 03:00:52;;;;;;;62.25;31.63;;;0.70;99.90;;;;;;5113580;28;20507;-59
2022/03/03 03:03:19;;;;;;;64.43;31.73;;;;;;;;;;5112355;28;20036;-59
2022/03/03 03:05:46;;;;;;;62.75;30.92;;;0.80;99.90;;;;;;5113335;28;20048;-58
2022/03/03 03:08:13;;;;;;;66.10;31.67;;;;;;;;;;5112388;28;20513;-59
2022/03/03 03:10:39;;;;;;;65.72;32.03;;;0.70;99.90;;;;;;5113216;28;20035;-58
2022/03/03 03:13:06;;;;;;;65.82;31.60;;;0.90;99.90;;;;;;5115390;28;20481;-59
2022/03/03 03:15:34;;;;;;;64.15;32.05;;;0.60;99.90;;;;;;5117762;28;20035;-58
2022/03/03 03:18:17;;;;;;;63.05;28.92;;;0.60;99.90;;;;;;5099450;28;20096;-57
2022/03/03 03:20:46;;;;;;;56.38;28.98;;;0.50;99.90;;;;;;5115272;28;20044;-58
2022/03/03 03:23:13;;;;;;;68.53;33.80;;;0.60;99.90;;;;;;5117394;28;20043;-59
2022/03/03 03:25:43;;;;;;;64.47;31.77;;;0.70;99.90;;;;;;5098754;28;20097;-60
2022/03/03 03:28:09;;;;;;;56.83;28.08;;;;;;;;;;5116161;28;20493;-62
2022/03/03 03:30:35;;;;;;;53.92;28.60;;;0.30;99.90;;;;;;5117064;28;20027;-62
2022/03/03 03:33:00;;;;;;;56.08;27.48;;;0.20;99.90;;;;;;5116085;28;20446;-62
2022/03/03 03:35:26;;;;;;;60.50;28.60;;;0.20;99.90;;;;;;5116927;28;20051;-61
2022/03/03 03:37:52;;;;;;;56.53;29.55;;;;;;;;;;5115814;28;20401;-59
2022/03/03 03:40:18;;;;;;;58.50;30.20;;;0.20;99.90;;;;;;5116541;28;20035;-59
2022/03/03 03:42:44;;;;;;;57.67;30.33;;;;;;;;;;5117315;28;20036;-58
2022/03/03 03:45:11;;;;;;;55.63;30.33;;;0.20;99.90;;;;;;5116802;28;20543;-59
2022/03/03 03:47:37;;;;;;;63.03;30.73;;;0.30;99.90;;;;;;5116997;28;20050;-58
2022/03/03 03:50:05;;;;;;;62.15;29.85;;;0.50;99.90;;;;;;5116531;28;20044;-60
2022/03/03 03:52:31;;;;;;;57.83;29.85;;;0.50;99.90;;;;;;5116639;28;20035;-59
2022/03/03 03:54:58;;;;;;;58.33;29.23;;;0.40;99.90;;;;;;5106847;28;20047;-59
2022/03/03 03:57:24;;;;;;;58.80;29.92;;;;;;;;;;4993140;28;20042;-58
2022/03/03 03:59:50;;;;;;;61.35;29.77;;;;;;;;;;4991916;28;20049;-59
2022/03/03 04:02:16;;;;;;;58.80;28.13;;;0.50;99.90;;;;;;4993392;28;20042;-59
2022/03/03 04:04:42;;;;;;;54.65;28.58;;;0.50;99.90;;;;;;4991966;28;20046;-59
2022/03/03 04:07:08;;;;;;;58.60;29.10;;;;;;;;;;4993288;28;20054;-59
2022/03/03 04:09:34;;;;;;;57.10;29.33;;;;;;;;;;4992920;28;20038;-59
2022/03/03 04:12:00;;;;;;;57.15;30.00;;;0.50;99.90;;;;;;4992059;28;20125;-59
2022/03/03 04:14:25;;;;;;;59.55;29.00;;;;;;;;;;4993431;28;20408;-59
2022/03/03 04:16:51;;;;;;;57.10;29.45;;;;;;;;;;4992315;28;20042;-59
2022/03/03 04:19:17;;;;;;;55.08;29.05;;;0.50;99.90;;;;;;4993001;28;20046;-59
2022/03/03 04:21:43;;;;;;;61.10;29.95;;;;;;;;;;4991817;28;20496;-58
2022/03/03 04:24:10;;;;;;;57.45;29.00;;;0.70;99.90;;;;;;4991937;28;20054;-59
2022/03/03 04:26:36;;;;;;;58.55;29.70;;;0.70;99.90;;;;;;4993113;28;20411;-59
2022/03/03 04:29:02;;;;;;;54.58;26.92;;;;;;;;;;4992795;28;20091;-59
2022/03/03 04:31:28;;;;;;;56.75;29.58;;;;;;;;;;4991366;28;20050;-60
2022/03/03 04:33:55;;;;;;;56.80;28.23;;;0.60;99.90;;;;;;4993008;28;20042;-59
2022/03/03 04:36:21;;;;;;;58.03;29.50;;;;;;;;;;4991877;28;20058;-60
2022/03/03 04:38:50;;;;;;;58.70;30.52;;;;;;;;;;4991712;28;20081;-60
2022/03/03 04:41:16;;;;;;;54.50;28.35;;;0.60;99.90;;;;;;4991579;28;20081;-59
2022/03/03 04:43:42;;;;;;;59.88;29.83;;;0.60;99.90;;;;;;4992233;28;20121;-60
2022/03/03 04:46:08;;;;;;;60.78;30.55;;;0.70;99.90;;;;;;5114365;28;20117;-59
2022/03/03 04:48:34;;;;;;;51.25;28.10;;;0.60;99.90;;;;;;5115492;28;20031;-59
2022/03/03 04:50:59;;;;;;;56.30;28.25;;;;;;;;;;5114257;28;20472;-59
2022/03/03 04:53:26;;;;;;;54.75;28.42;;;0.60;99.90;;;;;;5115441;28;20536;-60
2022/03/03 04:55:52;;;;;;;51.88;27.60;;;0.70;99.90;;;;;;5115558;28;20047;-59
2022/03/03 04:58:18;;;;;;;50.72;28.52;;;;;;;;;;5079877;27;20035;-59
2022/03/03 05:00:44;;;;;;;48.17;26.33;;;;;;;;;;4989974;28;20061;-61
2022/03/03 05:03:10;;;;;;;52.63;27.13;;;;;;;;;;4973883;28;20042;-60
2022/03/03 05:05:36;;;;;;;56.80;27.10;;;;;;;;;;4997600;28;20107;-59
2022/03/03 05:08:02;;;;;;;50.40;25.80;;;0.70;99.90;;;;;;5010448;28;20042;-60
2022/03/03 05:10:28;;;;;;;53.75;28.38;;;;;;;;;;5009224;28;20042;-61
2022/03/03 05:12:54;;;;;;;52.30;27.13;;;;;;;;;;5008842;28;20038;-59
2022/03/03 05:15:20;;;;;;;50.70;26.63;;;;;;;;;;5010087;28;20052;-61
2022/03/03 05:17:46;;;;;;;47.08;27.02;;;0.70;99.90;;;;;;5007835;28;20033;-59
2022/03/03 05:20:13;;;;;;;52.38;26.13;;;;;;;;;;5007065;28;20045;-59
2022/03/03 05:22:39;;;;;;;54.85;26.95;;;;;;;;;;5006575;28;20124;-58
2022/03/03 05:25:05;;;;;;;52.17;25.45;;;;;;;;;;5004920;28;20046;-59
2022/03/03 05:27:33;;;;;;;47.42;27.80;;;;;;;;;;5002799;28;20046;-60
2022/03/03 05:29:59;;;;;;;47.78;25.63;;;;;;;;;;4999733;28;20500;-59
2022/03/03 05:32:25;;;;;;;48.05;25.30;;;0.80;99.90;;;;;;4999883;28;20058;-57
2022/03/03 05:34:50;;;;;;;48.95;25.67;;;0.70;99.90;;;;;;4991321;28;20042;-59
2022/03/03 05:37:21;;;;;;;54.30;26.55;;;0.80;99.90;;;;;;4991914;28;20080;-59
2022/03/03 05:39:47;;;;;;;49.58;24.83;;;0.80;99.90;;;;;;4998952;28;20467;-59
2022/03/03 05:42:13;;;;;;;51.03;27.33;;;;;;;;;;5010837;28;20070;-60
2022/03/03 05:44:39;;;;;;;53.78;27.25;;;0.80;99.90;;;;;;5027757;28;20036;-59
2022/03/03 05:47:05;;;;;;;53.80;26.38;;;;;;;;;;5099745;28;20130;-57
2022/03/03 05:49:30;;;;;;;52.17;25.75;;;0.60;99.90;;;;;;5011355;28;20089;-55
2022/03/03 05:51:56;;;;;;;45.03;25.35;;;0.50;99.90;;;;;;5011365;28;20467;-57
2022/03/03 05:54:22;;;;;;;50.85;26.20;;;0.80;99.90;;;;;;5010998;28;20124;-57
2022/03/03 05:56:49;;;;;;;43.85;25.35;;;0.60;99.90;;;;;;5010941;28;20053;-57
2022/03/03 05:59:15;;;;;;;49.95;26.13;;;0.50;99.90;;;;;;5007643;28;20089;-57
2022/03/03 06:01:42;;;;;;;46.75;24.00;;;0.60;99.90;;;;;;5007823;28;20030;-62
2022/03/03 06:04:12;;;;;;;44.28;25.40;;;0.60;99.90;;;;;;5009651;28;20034;-61
2022/03/03 06:06:38;;;;;;;47.35;23.98;;;;;;;;;;5004590;28;20042;-58
2022/03/03 06:09:15;;;;;;;46.38;26.13;;;0.80;99.90;;;;;;5009241;28;20038;-63
2022/03/03 06:12:02;;;;;;;47.78;24.50;;;0.70;99.90;;;;;;5011081;28;20044;-63
2022/03/03 06:14:40;;;;;;;42.55;23.73;;;0.70;99.90;;;;;;5010782;28;20045;-63
2022/03/03 06:17:07;;;;;;;46.03;24.77;;;0.70;99.90;;;;;;4994266;28;20046;-57
2022/03/03 06:19:40;;;;;;;44.40;24.15;;;;;;;;;;5009347;28;20118;-60
2022/03/03 06:22:11;;;;;;;45.88;24.60;;;0.60;99.90;;;;;;4991349;28;20058;-58
2022/03/03 06:24:37;;;;;;;40.10;22.45;;;0.50;99.90;;;;;;4989991;28;20087;-57
2022/03/03 06:27:04;;;;;;;40.35;22.30;;;0.50;99.90;;;;;;5006569;28;20107;-61
2022/03/03 06:29:31;;;;;;;45.15;24.17;;;0.60;99.90;;;;;;5010259;28;20087;-60
2022/03/03 06:31:57;;;;;;;42.33;23.25;;;;;;;;;;4997459;28;20035;-61
2022/03/03 06:34:23;;;;;;;41.58;23.08;;;;;;;;;;4988534;28;20035;-61
2022/03/03 06:36:49;;;;;;;41.28;22.17;;;;;;;;;;4988374;28;20396;-62
2022/03/03 06:39:15;;;;;;;44.88;23.25;;;;;;;;;;4988125;28;20141;-63
2022/03/03 06:41:41;;;;;;;46.17;23.25;;;;;;;;;;4987365;28;20046;-63
2022/03/03 06:44:07;;;;;;;44.03;24.13;;;;;;;;;;4996440;28;20564;-62
2022/03/03 06:46:34;;;;;;;42.17;23.65;;;0.60;99.90;;;;;;4990950;28;20042;-62
2022/03/03 06:49:00;;;;;;;41.30;23.02;;;0.60;99.90;;;;;;4995961;28;20070;-62
2022/03/03 06:51:28;;;;;;;43.90;25.27;;;;;;;;;;4994967;28;20061;-62
2022/03/03 06:54:00;;;;;;;41.78;24.17;;;0.80;99.90;;;;;;4988338;28;20050;-62
2022/03/03 06:56:34;;;;;;;41.85;24.42;;;0.70;99.90;;;;;;4991850;28;20102;-62
2022/03/03 06:59:01;;;;;;;45.45;24.52;;;;;;;;;;4996375;28;20085;-62
2022/03/03 07:01:28;;;;;;;46.58;24.38;;;;;;;;;;5000364;28;20069;-63
2022/03/03 07:03:57;;;;;;;43.10;23.95;;;0.60;99.90;;;;;;5008836;28;20042;-63
2022/03/03 07:06:23;;;;;;;46.95;23.27;;;;;;;;;;5011573;28;20399;-63
2022/03/03 07:08:54;;;;;;;48.28;23.95;;;0.80;99.90;;;;;;5012404;28;20073;-63
2022/03/03 07:11:21;;;;;;;39.50;20.73;;;0.90;99.90;;;;;;5003194;28;20034;-63
2022/03/03 07:13:47;;;;;;;42.40;24.27;;;1.00;99.90;;;;;;5011972;28;20162;-64
2022/03/03 07:16:16;;;;;;;45.00;23.67;;;;;;;;;;5013774;28;20121;-63
2022/03/03 07:18:43;;;;;;;44.03;23.65;;;;;;;;;;5007928;28;20375;-62
2022/03/03 07:21:28;;;;;;;46.10;24.00;;;1.20;99.90;;;;;;5012722;28;20055;-62
2022/03/03 07:24:02;;;;;;;37.17;21.65;;;1.30;99.90;;;;;;5025834;28;20050;-62
2022/03/03 07:26:29;;;;;;;39.72;21.75;;;;;;;;;;5011526;28;20060;-62
2022/03/03 07:28:59;;;;;;;41.35;22.98;;;1.60;99.90;;;;;;5011196;28;20041;-62
2022/03/03 07:31:29;;;;;;;36.90;21.30;;;1.70;99.90;;;;;;5014033;28;20038;-63
2022/03/03 07:33:58;;;;;;;41.83;22.20;;;1.90;99.90;;;;;;5011023;28;20049;-62
2022/03/03 07:36:28;;;;;;;39.53;22.65;;;2.00;99.90;;;;;;5011358;28;20050;-63
2022/03/03 07:39:02;;;;;;;40.63;22.85;;;2.20;99.90;;;;;;5047814;28;20050;-63
2022/03/03 07:41:29;;;;;;;36.13;21.40;;;2.20;99.90;;;;;;5014448;28;20046;-63
2022/03/03 07:43:55;;;;;;;37.80;19.58;;;;;;;;;;5010719;28;20066;-63
2022/03/03 07:46:22;;;;;;;35.60;20.40;;;2.60;99.90;;;;;;5007196;28;20038;-62
2022/03/03 07:48:50;;;;;;;34.63;20.70;;;2.90;99.90;;;;;;5011872;28;20046;-63
2022/03/03 07:51:18;;;;;;;33.80;21.52;;;3.60;99.90;;;;;;5012407;28;20496;-63
2022/03/03 07:53:43;;;;;;;34.38;20.23;;;4.90;99.90;;;;;;5010676;28;20431;-63
2022/03/03 07:56:11;;;;;;;30.10;18.88;;;4.60;99.90;;;;;;5012566;28;20045;-63
2022/03/03 07:58:44;;;;;;;37.17;19.83;;;4.40;99.90;;;;;;5011583;28;20042;-61
2022/03/03 08:01:13;;;;;;;33.88;19.30;;;5.50;99.90;;;;;;5022699;28;20492;-61
2022/03/03 08:03:45;;;;;;;30.63;18.63;;;5.90;99.90;;;;;;5012081;28;20034;-63
2022/03/03 08:06:13;;;;;;;29.98;18.15;;;6.80;99.90;;;;;;5011032;28;20118;-63
2022/03/03 08:08:39;;;;;;;27.27;18.13;;;;;;;;;;5010701;28;20042;-63
2022/03/03 08:11:07;;;;;;;27.35;16.38;;;8.20;99.90;;;;;;5019398;28;20037;-61
2022/03/03 08:13:34;;;;;;;30.70;16.65;;;8.30;99.90;;;;;;5021156;28;20467;-63
2022/03/03 08:16:01;;;;;;;27.17;18.50;;;8.80;99.90;;;;;;5017930;28;20060;-63
2022/03/03 08:18:35;;;;;;;26.17;17.38;;;9.70;99.90;;;;;;5007106;28;20065;-64
2022/03/03 08:21:02;;;;;;;29.27;19.13;;;;;;;;;;5007542;28;20053;-64
2022/03/03 08:23:30;;;;;;;28.38;18.00;;;8.90;99.90;;;;;;5008868;28;20058;-63
2022/03/03 08:25:56;;;;;;;29.05;18.83;;;8.50;99.90;;;;;;5023914;28;20129;-64
2022/03/03 08:28:24;;;;;;;28.33;17.60;;;9.10;99.90;;;;;;5008369;28;20124;-62
2022/03/03 08:30:59;;;;;;;29.40;17.05;;;8.90;99.90;;;;;;5007790;28;20402;-64
2022/03/03 08:33:45;;;;;;;24.70;16.25;;;9.20;99.90;;;;;;5017877;28;20094;-62
2022/03/03 08:36:21;;;;;;;26.38;17.10;;;9.40;99.90;;;;;;5009427;28;20073;-63
2022/03/03 08:38:51;;;;;;;25.17;17.45;;;9.30;99.90;;;;;;5009848;28;20058;-63
2022/03/03 08:41:21;;;;;;;26.95;17.20;;;10.30;99.90;;;;;;5008164;28;20487;-65
2022/03/03 08:43:50;;;;;;;26.38;16.58;;;10.40;99.90;;;;;;5035476;28;20101;-64
2022/03/03 08:46:21;;;;;;;24.63;17.05;;;11.50;99.90;;;;;;5059029;28;20053;-65
2022/03/03 08:48:49;;;;;;;21.13;14.85;;;12.50;97.90;;;;;;5011537;28;20030;-65
2022/03/03 08:51:16;;;;;;;22.13;15.68;;;13.20;97.10;;;;;;5008698;28;20030;-65
2022/03/03 08:53:42;;;;;;;21.35;14.20;;;;;;;;;;5013201;28;20388;-63
2022/03/03 08:56:08;;;;;;;21.73;15.18;;;;;;;;;;5021303;28;20073;-67
2022/03/03 08:58:34;;;;;;;18.33;12.98;;;14.30;90.40;;;;;;5008925;28;20106;-65
2022/03/03 09:01:00;;;;;;;23.77;15.25;;;14.30;90.50;;;;;;5006006;28;20480;-63
2022/03/03 09:03:26;;;;;;;23.20;15.60;;;;;;;;;;5005805;28;20038;-64
2022/03/03 09:05:54;;;;;;;22.70;15.30;;;14.70;88.50;;;;;;5003658;28;20488;-64
2022/03/03 09:08:20;;;;;;;22.75;15.82;;;14.30;88.80;;;;;;5007337;28;20034;-64
2022/03/03 09:10:46;;;;;;;23.10;16.20;;;;;;;;;;5006773;28;20491;-64
2022/03/03 09:13:11;;;;;;;22.75;16.13;;;14.00;88.60;;;;;;5007311;28;20038;-63
2022/03/03 09:15:37;;;;;;;24.67;15.82;;;14.60;89.60;;;;;;5026881;28;20546;-65
2022/03/03 09:18:03;;;;;;;21.33;15.68;;;14.90;88.00;;;;;;5007003;28;20491;-63
2022/03/03 09:20:29;;;;;;;22.05;14.73;;;15.10;86.30;;;;;;5008712;28;20772;-62
2022/03/03 09:22:55;;;;;;;23.83;15.00;;;15.20;87.20;;;;;;5007595;28;20068;-62
2022/03/03 09:25:20;;;;;;;25.35;15.00;;;14.90;84.50;;;;;;5026403;28;20054;-63
2022/03/03 09:27:46;;;;;;;21.30;15.23;;;15.80;83.50;;;;;;5020612;28;20046;-63
2022/03/03 09:30:12;;;;;;;19.50;15.10;;;15.20;85.10;;;;;;5004963;28;20041;-63
2022/03/03 09:32:38;;;;;;;23.50;16.23;;;15.90;83.50;;;;;;5006044;28;20049;-63
2022/03/03 09:35:06;;;;;;;22.52;15.30;;;16.20;82.80;;;;;;5005810;28;20046;-63
2022/03/03 09:37:31;;;;;;;21.92;15.55;;;16.90;81.10;;;;;;5012389;28;20065;-64
2022/03/03 09:39:57;;;;;;;17.90;13.63;;;17.10;81.70;;;;;;5008077;28;20042;-63
2022/03/03 09:42:23;;;;;;;21.38;15.05;;;16.90;79.30;;;;;;5001590;28;20070;-64
2022/03/03 09:44:48;;;;;;;19.70;13.75;;;18.00;79.80;;;;;;5005281;28;20492;-64
2022/03/03 09:47:17;;;;;;;18.90;14.85;;;18.40;76.70;;;;;;4994844;28;20049;-64
2022/03/03 09:49:43;;;;;;;18.70;14.95;;;19.20;76.70;;;;;;5021681;28;20091;-64
2022/03/03 09:52:13;;;;;;;19.52;14.38;;;19.30;75.50;;;;;;5005784;28;20049;-64
2022/03/03 09:54:40;;;;;;;17.52;13.75;;;18.80;75.30;;;;;;5004853;28;20050;-63
2022/03/03 09:57:05;;;;;;;17.98;14.38;;;19.50;74.60;;;;;;5013892;28;20062;-63
2022/03/03 09:59:32;;;;;;;20.88;14.25;;;19.70;73.60;;;;;;5008572;28;20050;-64
2022/03/03 10:02:05;;;;;;;18.15;12.05;;;19.10;73.70;;;;;;5003510;28;20458;-64
2022/03/03 10:04:31;;;;;;;18.20;14.35;;;19.50;73.20;;;;;;5003566;28;20125;-65
2022/03/03 10:07:05;;;;;;;17.73;14.00;;;19.70;71.00;;;;;;5004996;28;20090;-64
2022/03/03 10:09:31;;;;;;;17.83;13.25;;;19.40;72.90;;;;;;5005629;28;20091;-64
2022/03/03 10:12:02;;;;;;;16.33;13.00;;;19.50;73.10;;;;;;5011598;28;20099;-63
2022/03/03 10:14:37;;;;;;;18.90;13.88;;;20.10;69.80;;;;;;5005628;28;20042;-64
2022/03/03 10:17:04;;;;;;;15.82;12.50;;;20.70;70.10;;;;;;5005183;28;20046;-64
2022/03/03 10:19:29;;;;;;;17.02;12.27;;;20.40;69.70;;;;;;5018309;28;20463;-64
2022/03/03 10:21:55;;;;;;;18.02;12.75;;;20.20;69.10;;;;;;5042089;28;20153;-64
2022/03/03 10:24:27;;;;;;;14.98;13.13;;;20.30;69.90;;;;;;5005378;28;20076;-65
2022/03/03 10:27:02;;;;;;;16.77;13.48;;;20.50;70.50;;;;;;5003399;28;20091;-64
2022/03/03 10:29:28;;;;;;;17.50;11.88;;;21.10;69.70;;;;;;5035938;28;20049;-64
2022/03/03 10:31:55;;;;;;;18.27;13.13;;;20.80;67.20;;;;;;5011166;28;20406;-64
2022/03/03 10:34:32;;;;;;;18.85;12.50;;;21.00;68.30;;;;;;5011356;28;20118;-65
2022/03/03 10:37:03;;;;;;;16.67;13.48;;;20.20;69.00;;;;;;5004914;28;20054;-64
2022/03/03 10:39:43;;;;;;;16.00;12.82;;;18.50;70.10;;;;;;5013325;28;20491;-64
2022/03/03 10:42:19;;;;;;;16.25;12.57;;;17.20;73.60;;;;;;5005491;28;20042;-64
2022/03/03 10:44:46;;;;;;;16.35;13.15;;;18.20;70.40;;;;;;5035588;28;20093;-65
2022/03/03 10:47:14;;;;;;;15.57;12.95;;;18.40;71.80;;;;;;5004081;28;20074;-65
2022/03/03 10:49:45;;;;;;;16.60;12.95;;;18.80;71.20;;;;;;5021020;28;20038;-65
2022/03/03 10:52:40;;;;;;;18.48;14.02;;;18.70;71.10;;;;;;5003274;28;20056;-65
2022/03/03 10:55:11;;;;;;;18.52;13.57;;;18.60;68.30;;;;;;5013044;28;20130;-65
2022/03/03 10:57:44;;;;;;;19.10;14.07;;;17.30;70.60;;;;;;5003717;28;20052;-64
2022/03/03 11:00:11;;;;;;;16.98;13.55;;;17.00;70.90;;;;;;5013685;28;20088;-64
2022/03/03 11:02:39;;;;;;;16.48;13.40;;;17.40;72.20;;;;;;5003522;28;20046;-64
2022/03/03 11:05:06;;;;;;;15.32;12.38;;;17.00;72.10;;;;;;5013525;28;20071;-65
2022/03/03 11:07:33;;;;;;;15.15;11.77;;;16.60;71.70;;;;;;5005024;28;20504;-65
2022/03/03 11:09:59;;;;;;;17.98;12.38;;;16.40;72.00;;;;;;5005669;28;20060;-65
2022/03/03 11:12:27;;;;;;;16.70;11.63;;;15.60;73.40;;;;;;5031084;28;20050;-65
2022/03/03 11:14:55;;;;;;;18.13;12.65;;;15.20;74.30;;;;;;5003534;28;20112;-65
2022/03/03 11:17:21;;;;;;;16.20;12.57;;;15.10;77.40;;;;;;5047829;28;20089;-64
2022/03/03 11:19:48;;;;;;;16.10;12.60;;;14.50;76.70;;;;;;5016137;28;20576;-67
2022/03/03 11:22:16;;;;;;;15.88;13.18;;;14.20;83.50;;;;;;5007992;28;20090;-64
2022/03/03 11:24:42;;;;;;;17.38;12.73;;;14.30;80.40;;;;;;5003227;28;20085;-64
2022/03/03 11:27:08;;;;;;;14.30;11.48;;;13.10;81.20;;;;;;5014264;28;20070;-65
2022/03/03 11:29:38;;;;;;;14.90;10.50;;;12.90;81.70;;;;;;5004879;28;20046;-65
2022/03/03 11:32:07;;;;;;;15.57;11.80;;;12.40;83.70;;;;;;5034741;28;20254;-64
2022/03/03 11:34:32;;;;;;;17.30;11.02;;;12.20;83.20;;;;;;5006455;28;20050;-65
2022/03/03 11:37:21;;;;;;;16.23;11.70;;;12.10;79.20;;;;;;5014600;28;20124;-64
2022/03/03 11:39:47;;;;;;;16.50;11.45;;;;;;;;;;5008684;28;20125;-65
2022/03/03 11:42:20;;;;;;;15.93;11.55;;;12.00;80.70;;;;;;5014984;28;20038;-65
2022/03/03 11:44:46;;;;;;;18.70;12.07;;;11.70;84.90;;;;;;5006051;28;20415;-64
2022/03/03 11:47:21;;;;;;;13.90;10.80;;;11.40;87.90;;;;;;5010850;28;20576;-65
2022/03/03 11:50:16;;;;;;;16.20;11.23;;;11.30;89.10;;;;;;5018381;28;20053;-66
2022/03/03 11:53:13;;;;;;;14.48;10.32;;;11.80;84.30;;;;;;5010136;28;20148;-63
2022/03/03 11:55:43;;;;;;;15.07;11.05;;;13.30;82.60;;;;;;5005215;28;20041;-63
2022/03/03 11:58:16;;;;;;;15.73;10.23;;;13.60;81.10;;;;;;5012969;28;20050;-64
2022/03/03 12:00:59;;;;;;;14.50;10.85;;;13.20;84.40;;;;;;5003634;28;20546;-64
2022/03/03 12:03:25;;;;;;;13.90;10.75;;;14.40;83.70;;;;;;5005885;28;20088;-65
2022/03/03 12:06:13;;;;;;;16.52;11.48;;;15.40;83.10;;;;;;5005438;28;20124;-64
2022/03/03 12:08:42;;;;;;;16.58;11.48;;;15.20;78.90;;;;;;5003385;28;20044;-63
2022/03/03 12:11:15;;;;;;;17.40;11.77;;;14.40;83.60;;;;;;5018917;28;20112;-64
2022/03/03 12:13:44;;;;;;;15.32;11.82;;;;;;;;;;5034881;28;20043;-63
2022/03/03 12:16:28;;;;;;;16.58;10.88;;;12.70;85.10;;;;;;5004311;28;20050;-64
2022/03/03 12:18:57;;;;;;;17.73;12.50;;;12.10;89.90;;;;;;5005840;28;20452;-64
2022/03/03 12:21:33;;;;;;;14.68;10.75;;;12.00;89.00;;;;;;5010502;28;20841;-63
2022/03/03 12:24:14;;;;;;;15.60;10.10;;;11.70;86.10;;;;;;5022261;28;20506;-64
2022/03/03 12:26:59;;;;;;;15.82;10.40;;;12.00;86.50;;;;;;4992547;28;20053;-63
2022/03/03 12:29:50;;;;;;;11.02;8.82;;;11.60;89.70;;;;;;4986659;28;20049;-63
2022/03/03 12:32:36;;;;;;;13.85;9.10;;;11.80;85.00;;;;;;5005927;28;20117;-64
2022/03/03 12:35:06;;;;;;;12.77;9.57;;;11.60;90.50;;;;;;5001264;28;20073;-63
2022/03/03 12:37:33;;;;;;;12.77;8.95;;;11.60;90.10;;;;;;5004400;28;20600;-63
2022/03/03 12:40:02;;;;;;;11.88;8.25;;;11.70;88.10;;;;;;5005141;28;20038;-63
2022/03/03 12:42:31;;;;;;;12.40;8.18;;;11.70;88.40;;;;;;5021402;28;20525;-64
2022/03/03 12:44:59;;;;;;;12.10;7.28;;;11.60;90.10;;;;;;4999550;28;20050;-64
2022/03/03 12:47:37;;;;;;;11.68;8.15;;;11.70;90.70;;;;;;5004377;28;20038;-63
2022/03/03 12:50:11;;;;;;;16.25;8.95;;;11.60;89.30;;;;;;5003970;28;20046;-64
2022/03/03 12:52:39;;;;;;;12.40;7.80;;;11.50;88.10;;;;;;4999969;28;20128;-64
2022/03/03 12:55:06;;;;;;;12.07;8.68;;;11.60;89.80;;;;;;4996406;28;20042;-64
2022/03/03 12:57:34;;;;;;;14.23;8.52;;;11.60;91.10;;;;;;4999774;28;20798;-64
2022/03/03 13:00:03;;;;;;;9.57;6.93;;;11.50;90.30;;;;;;4994761;28;20036;-64